Duncanville, TX (75116)

1:05 PM CDT on September 02, 2015 (GMT -0500)
Irwin Keasler Red Bird North | | Change Station
CLOSE
Current Station
Personal Weather Station
Location: Duncanville, TX
Elevation: 732 ft
Nearby Weather Stations

Elev 732 ft 32.67 °N, 96.92 °W | Updated 6 seconds ago

Clear
Clear
92.1 °F
Feels Like 97 °F
N
6.3
Wind Variable Wind from WSW
Gusts 7.8 mph

Today
High -- | Low -- °F
--% Chance of Precip.
Yesterday
High -- | Low -- °F
Precip. -- in
7:02 AM 7:51 PM
Waning Gibbous, 78% visible
Pressure 30.02 in
Visibility 10.0 miles
Clouds Clear
Heat Index 97 °F
Dew Point 68 °F
Humidity 46%
Rainfall 0.00 in
Snow Depth Not available.
UV 10 out of 12
Pollen 9.30 out of 12
Air Quality Not available.
Flu Activity Not available.
METAR KRBD 021753Z 12007KT 100V160 10SM CLR 32/18 A3004 RMK AO2 SLP164 T03170178 10317 20217 58014
Pressure 30.02 in
Visibility 10.0 miles
Clouds Clear
Heat Index 97 °F
Dew Point 68 °F
Humidity 46%
Rainfall 0.00 in
Snow Depth Not available.
UV 10 out of 12
Pollen 9.30 out of 12
Air Quality Not available.
Flu Activity Not available.
METAR KRBD 021753Z 12007KT 100V160 10SM CLR 32/18 A3004 RMK AO2 SLP164 T03170178 10317 20217 58014

10-Day Weather Forecast

×

Almanac

Astronomy

Sep. 02, 2015 Rise Set
Actual Time
Civil Twilight
Nautical Twilight
Astronomical Twilight
Moon
Length of Visible Light
Length of Day
Tomorrow will be .
, % of the Moon is Illuminated

Today's Extremes

State Highs State Lows

Community

WunderPhotos

Upload Photos

1,851,789 photos uploaded!

WunderBlogs® & News

Nearby

Air Quality

  Air Quality AQ Index Pollutant
Not available.

Snow Depth

Station Depth Elevation

Earthquake Activity

City Distance Mag. Time & Date
Minimum magnitude displayed is 2.5.

Coastal Water Temperatures

Place Temperature

Stations

Nearby Weather Stations

Station Location Temp. Windchill Dew Point Humidity Wind Precip. Elev Updated Type